Time;durP1;ratioP1;P1;durP2;ratioP2;P2;SDS_P1;SDS_P2;PMS_P1;PMS_P2;Temp;Humidity;BMP_temperature;BMP_pressure;BME280_temperature;BME280_humidity;BME280_pressure;Samples;Min_cycle;Max_cycle;Signal;HPM_P1;HPM_P2
2024/03/09 00:00:19;;;;;;;;;;;;;;;21.99;25.37;98303.75;5040599;28;727;-81
2024/03/09 00:02:48;;;;;;;;;;;;;;;21.92;25.32;98306.75;5040840;28;847;-81
2024/03/09 00:05:13;;;;;;;;;;;;;;;21.90;25.33;98306.38;5040050;28;1423;-81
2024/03/09 00:07:39;;;;;;;;;;;;;;;21.87;25.29;98304.44;5040629;28;1075;-81
2024/03/09 00:10:05;;;;;;;;;;;;;;;21.67;25.93;98299.59;5023038;28;1116;-81
2024/03/09 00:12:33;;;;;;;;;;;;;;;21.78;25.38;98300.16;5041079;28;869;-81
2024/03/09 00:15:01;;;;;;;;;;;;;;;21.69;25.44;98288.63;5007396;28;1866;-81
2024/03/09 00:17:27;;;;;;;;;;;;;;;21.71;25.80;98302.34;5041022;28;1979;-81
2024/03/09 00:19:52;;;;;;;;;;;;;;;21.77;25.71;98301.41;5040163;28;1177;-81
2024/03/09 00:22:19;;;;;;;;;;;;;;;21.76;25.74;98296.97;5040928;28;807;-81
2024/03/09 00:24:45;;;;;;;;;;;;;;;21.81;25.51;98296.47;5039444;28;1936;-80
2024/03/09 00:27:14;;;;;;;;;;;;;;;21.79;25.69;98298.13;5042438;28;1208;-81
2024/03/09 00:29:40;;;;;;;;;;;;;;;21.85;25.47;98302.03;5039722;28;1295;-81
2024/03/09 00:32:05;;;;;;;;;;;;;;;21.67;25.61;98291.13;5040928;28;898;-81
2024/03/09 00:34:32;;;;;;;;;;;;;;;21.75;25.24;98295.38;5039095;28;1751;-81
2024/03/09 00:36:58;;;;;;;;;;;;;;;21.19;26.24;98286.84;5024040;28;1902;-81
2024/03/09 00:39:23;;;;;;;;;;;;;;;21.74;25.75;98285.28;5006800;28;1147;-81
2024/03/09 00:41:49;;;;;;;;;;;;;;;21.81;25.67;98278.66;5023581;28;842;-81
2024/03/09 00:44:14;;;;;;;;;;;;;;;21.81;25.56;98278.66;5022703;28;1668;-81
2024/03/09 00:46:40;;;;;;;;;;;;;;;21.97;25.19;98269.41;5041521;28;885;-81
2024/03/09 00:49:05;;;;;;;;;;;;;;;21.90;25.33;98278.84;5040307;28;857;-81
2024/03/09 00:51:31;;;;;;;;;;;;;;;21.58;25.59;98282.41;5039482;28;1747;-81
2024/03/09 00:53:57;;;;;;;;;;;;;;;21.15;26.09;98294.63;5023042;28;870;-81
2024/03/09 00:56:23;;;;;;;;;;;;;;;21.57;25.86;98280.81;5040049;28;1914;-81
2024/03/09 00:58:48;;;;;;;;;;;;;;;21.89;25.57;98280.09;5039089;28;871;-81
2024/03/09 01:01:14;;;;;;;;;;;;;;;21.64;25.67;98275.00;5039287;28;1640;-81
2024/03/09 01:03:39;;;;;;;;;;;;;;;21.89;25.54;98265.91;5022237;28;824;-81
2024/03/09 01:06:05;;;;;;;;;;;;;;;21.79;25.50;98270.59;5040281;28;841;-81
2024/03/09 01:08:31;;;;;;;;;;;;;;;21.75;25.49;98263.41;5022155;28;925;-81
2024/03/09 01:10:56;;;;;;;;;;;;;;;21.23;26.47;98267.75;5040436;28;1770;-81
2024/03/09 01:13:22;;;;;;;;;;;;;;;21.37;25.96;98268.72;5038602;28;795;-81
2024/03/09 01:15:51;;;;;;;;;;;;;;;21.87;25.61;98259.13;5023314;28;862;-81
2024/03/09 01:18:17;;;;;;;;;;;;;;;21.72;25.66;98259.44;5038835;28;1960;-81
2024/03/09 01:20:43;;;;;;;;;;;;;;;21.99;25.11;98261.25;5021815;28;1700;-81
2024/03/09 01:23:09;;;;;;;;;;;;;;;21.87;25.49;98264.78;5020303;28;1912;-81
2024/03/09 01:25:34;;;;;;;;;;;;;;;21.91;25.45;98260.59;5022597;28;1892;-81
2024/03/09 01:28:00;;;;;;;;;;;;;;;21.85;25.61;98265.19;5039377;28;1026;-81
2024/03/09 01:30:25;;;;;;;;;;;;;;;21.78;25.38;98260.50;5038427;28;1754;-81
2024/03/09 01:32:51;;;;;;;;;;;;;;;21.68;25.55;98257.94;5038676;28;881;-81
2024/03/09 01:35:16;;;;;;;;;;;;;;;21.57;25.74;98255.34;5040161;28;847;-81
2024/03/09 01:37:42;;;;;;;;;;;;;;;21.74;25.62;98261.81;5021904;28;2262;-81
2024/03/09 01:40:09;;;;;;;;;;;;;;;21.69;25.54;98259.50;5020477;28;1500;-81
2024/03/09 01:42:35;;;;;;;;;;;;;;;21.77;25.55;98261.75;5022005;28;1224;-81
2024/03/09 01:45:05;;;;;;;;;;;;;;;21.87;25.34;98250.63;5021119;28;1022;-81
2024/03/09 01:47:31;;;;;;;;;;;;;;;21.91;25.45;98260.59;4983002;28;906;-81
2024/03/09 01:49:57;;;;;;;;;;;;;;;21.70;25.59;98256.22;4997942;28;822;-81
2024/03/09 01:52:25;;;;;;;;;;;;;;;21.66;25.67;98249.88;4979819;28;1401;-81
2024/03/09 01:54:51;;;;;;;;;;;;;;;21.29;26.06;98254.69;4981756;28;1250;-81
2024/03/09 01:57:17;;;;;;;;;;;;;;;21.93;25.33;98243.19;4982306;28;1883;-81
2024/03/09 01:59:46;;;;;;;;;;;;;;;21.85;25.46;98257.50;4981955;28;941;-81
2024/03/09 02:02:13;;;;;;;;;;;;;;;21.87;25.28;98254.25;4981150;28;1937;-81
2024/03/09 02:04:38;;;;;;;;;;;;;;;21.88;25.58;98257.88;4964157;28;1671;-80
2024/03/09 02:07:04;;;;;;;;;;;;;;;21.82;25.69;98257.59;4966609;28;911;-81
2024/03/09 02:09:29;;;;;;;;;;;;;;;21.72;25.56;98258.66;4981903;28;1234;-81
2024/03/09 02:11:56;;;;;;;;;;;;;;;22.00;25.14;98262.84;4982214;28;1957;-81
2024/03/09 02:14:22;;;;;;;;;;;;;;;21.81;25.29;98264.47;4982193;28;964;-81
2024/03/09 02:16:49;;;;;;;;;;;;;;;21.45;25.92;98256.81;4966255;28;2225;-81
2024/03/09 02:19:15;;;;;;;;;;;;;;;21.62;25.82;98266.16;4998013;28;1124;-81
2024/03/09 02:21:41;;;;;;;;;;;;;;;21.79;25.55;98264.94;4984808;28;1729;-81
2024/03/09 02:24:11;;;;;;;;;;;;;;;21.87;25.38;98264.78;5001137;28;1298;-81
2024/03/09 02:26:37;;;;;;;;;;;;;;;21.75;25.71;98258.53;5001799;28;1113;-81
2024/03/09 02:29:03;;;;;;;;;;;;;;;21.90;25.41;98270.34;5017280;28;992;-81
2024/03/09 02:31:28;;;;;;;;;;;;;;;21.95;25.25;98269.03;5001308;28;1836;-81
2024/03/09 02:33:55;;;;;;;;;;;;;;;21.73;25.60;98265.91;5034940;28;1162;-81
2024/03/09 02:36:27;;;;;;;;;;;;;;;21.67;25.35;98264.84;4993248;28;1887;-81
2024/03/09 02:38:54;;;;;;;;;;;;;;;21.69;25.78;98271.63;5041779;28;750;-80
2024/03/09 02:41:20;;;;;;;;;;;;;;;22.03;25.08;98273.28;5008451;28;1470;-81
2024/03/09 02:43:46;;;;;;;;;;;;;;;21.89;25.40;98267.97;5042782;28;804;-80
2024/03/09 02:46:15;;;;;;;;;;;;;;;21.95;25.29;98266.19;5075607;28;873;-81
2024/03/09 02:48:43;;;;;;;;;;;;;;;22.05;24.98;98270.81;5025082;28;1140;-81
2024/03/09 02:51:10;;;;;;;;;;;;;;;21.94;25.38;98270.28;5001123;28;1832;-81
2024/03/09 02:53:35;;;;;;;;;;;;;;;21.86;25.31;98275.28;4984447;28;1427;-81
2024/03/09 02:56:03;;;;;;;;;;;;;;;21.40;25.82;98265.00;4986042;28;1378;-81
2024/03/09 02:58:29;;;;;;;;;;;;;;;21.60;25.91;98268.59;4984946;28;2012;-81
2024/03/09 03:00:55;;;;;;;;;;;;;;;21.90;25.48;98269.53;5000621;28;1701;-81
2024/03/09 03:06:06;;;;;;;;;;;;;;;21.98;25.30;98271.00;5002324;28;907;-81
2024/03/09 03:08:33;;;;;;;;;;;;;;;21.77;25.57;98272.28;5001050;28;880;-81
2024/03/09 03:10:59;;;;;;;;;;;;;;;21.68;25.27;98284.22;4980340;28;1448;-81
2024/03/09 03:13:26;;;;;;;;;;;;;;;21.48;25.70;98278.56;4964701;28;829;-81
2024/03/09 03:15:52;;;;;;;;;;;;;;;21.66;25.40;98281.03;4982145;28;817;-81
2024/03/09 03:18:19;;;;;;;;;;;;;;;21.79;25.61;98287.59;4964891;28;1923;-81
2024/03/09 03:20:44;;;;;;;;;;;;;;;21.76;25.55;98282.00;4985666;28;1326;-81
2024/03/09 03:23:10;;;;;;;;;;;;;;;21.85;25.50;98283.00;5037105;28;961;-81
2024/03/09 03:25:36;;;;;;;;;;;;;;;21.57;25.90;98281.63;5025805;28;731;-81
2024/03/09 03:28:02;;;;;;;;;;;;;;;21.70;25.55;98290.22;5040954;28;1189;-81
2024/03/09 03:30:29;;;;;;;;;;;;;;;21.68;25.51;98277.75;5041419;28;1313;-81
2024/03/09 03:32:54;;;;;;;;;;;;;;;21.78;25.28;98274.66;5024958;28;1044;-81
2024/03/09 03:35:20;;;;;;;;;;;;;;;21.88;25.29;98283.38;5008364;28;1228;-81
2024/03/09 03:37:46;;;;;;;;;;;;;;;22.06;25.07;98278.84;5041363;28;1979;-81
2024/03/09 03:40:14;;;;;;;;;;;;;;;21.64;25.79;98269.31;5019849;28;1029;-80
2024/03/09 03:42:40;;;;;;;;;;;;;;;21.62;25.74;98277.47;4984221;28;1876;-81
2024/03/09 03:45:11;;;;;;;;;;;;;;;21.81;25.34;98282.31;4951971;28;1247;-81
2024/03/09 03:47:40;;;;;;;;;;;;;;;21.99;25.44;98272.56;5001194;28;795;-81
2024/03/09 03:50:08;;;;;;;;;;;;;;;21.75;25.48;98271.91;4984198;28;787;-81
2024/03/09 03:52:34;;;;;;;;;;;;;;;21.70;25.59;98270.41;4979370;28;1848;-81
2024/03/09 03:55:00;;;;;;;;;;;;;;;21.49;26.04;98276.53;4964381;28;974;-80
2024/03/09 03:57:27;;;;;;;;;;;;;;;21.82;25.32;98281.06;4949531;28;1926;-81
2024/03/09 03:59:53;;;;;;;;;;;;;;;21.79;25.53;98281.94;4947729;28;1437;-81
2024/03/09 04:02:19;;;;;;;;;;;;;;;21.78;25.79;98285.22;4948974;28;971;-81
2024/03/09 04:04:45;;;;;;;;;;;;;;;21.89;25.27;98287.78;4964205;28;942;-81
2024/03/09 04:07:10;;;;;;;;;;;;;;;21.66;25.73;98283.84;4981354;28;941;-80
2024/03/09 04:09:36;;;;;;;;;;;;;;;21.78;25.38;98283.16;4960552;28;1746;-81
2024/03/09 04:12:01;;;;;;;;;;;;;;;21.47;25.76;98282.66;4964910;28;1717;-81
2024/03/09 04:14:27;;;;;;;;;;;;;;;21.95;25.35;98280.34;4983565;28;1019;-81
2024/03/09 04:16:53;;;;;;;;;;;;;;;21.88;25.62;98283.38;5000872;28;1914;-81
2024/03/09 04:19:19;;;;;;;;;;;;;;;21.76;25.78;98282.81;4982524;28;1784;-81
2024/03/09 04:21:45;;;;;;;;;;;;;;;21.92;25.46;98289.75;5001150;28;926;-81
2024/03/09 04:24:11;;;;;;;;;;;;;;;21.78;25.45;98280.34;4982898;28;771;-82
2024/03/09 04:26:37;;;;;;;;;;;;;;;21.73;25.75;98288.56;5000252;28;1077;-81
2024/03/09 04:29:02;;;;;;;;;;;;;;;21.77;25.55;98292.13;4982848;28;1750;-81
2024/03/09 04:31:32;;;;;;;;;;;;;;;21.76;25.50;98282.81;4999834;28;975;-81
2024/03/09 04:34:01;;;;;;;;;;;;;;;21.38;26.08;98284.47;4999143;28;801;-81
2024/03/09 04:36:29;;;;;;;;;;;;;;;21.87;25.36;98281.78;5012374;28;1958;-81
2024/03/09 04:38:55;;;;;;;;;;;;;;;21.78;25.47;98286.00;5039430;28;1728;-81
2024/03/09 04:41:21;;;;;;;;;;;;;;;21.79;25.72;98281.13;5022872;28;941;-81
2024/03/09 04:43:46;;;;;;;;;;;;;;;21.67;26.02;98282.63;5037855;28;891;-81
2024/03/09 04:46:12;;;;;;;;;;;;;;;21.76;25.90;98288.50;5023247;28;853;-81
2024/03/09 04:48:37;;;;;;;;;;;;;;;21.77;25.81;98290.06;5038237;28;1133;-81
2024/03/09 04:51:03;;;;;;;;;;;;;;;21.28;26.14;98289.88;5039282;28;1468;-80
2024/03/09 04:53:28;;;;;;;;;;;;;;;21.40;25.88;98290.47;5020845;28;1725;-81
2024/03/09 04:55:54;;;;;;;;;;;;;;;21.78;25.87;98286.00;5022218;28;1130;-81
2024/03/09 04:58:21;;;;;;;;;;;;;;;21.79;25.55;98287.59;4988530;28;1973;-81
2024/03/09 05:00:47;;;;;;;;;;;;;;;21.75;25.70;98286.88;4986657;28;1108;-81
2024/03/09 05:03:12;;;;;;;;;;;;;;;21.77;25.77;98290.06;5001618;28;934;-81
2024/03/09 05:05:39;;;;;;;;;;;;;;;21.62;25.92;98297.28;4998973;28;903;-81
2024/03/09 05:08:05;;;;;;;;;;;;;;;21.55;25.79;98301.09;4963285;28;968;-81
2024/03/09 05:10:30;;;;;;;;;;;;;;;21.36;25.86;98298.28;4963367;28;770;-81
2024/03/09 05:12:56;;;;;;;;;;;;;;;21.89;25.55;98307.63;4979130;28;941;-80
2024/03/09 05:15:25;;;;;;;;;;;;;;;21.65;25.97;98304.09;4979100;28;809;-81
2024/03/09 05:17:58;;;;;;;;;;;;;;;21.75;25.78;98308.72;4979146;28;1973;-81
2024/03/09 05:20:23;;;;;;;;;;;;;;;21.83;25.72;98310.97;4978779;28;910;-81
2024/03/09 05:22:49;;;;;;;;;;;;;;;21.67;25.62;98319.44;4978554;28;1014;-81
2024/03/09 05:25:15;;;;;;;;;;;;;;;21.71;25.65;98323.00;4978567;28;808;-81
2024/03/09 05:27:44;;;;;;;;;;;;;;;21.73;25.56;98329.00;4978602;28;1234;-81
2024/03/09 05:30:13;;;;;;;;;;;;;;;21.45;25.67;98327.59;4978515;28;808;-81
2024/03/09 05:32:39;;;;;;;;;;;;;;;21.73;25.45;98329.00;4962638;28;970;-81
2024/03/09 05:35:06;;;;;;;;;;;;;;;21.83;25.50;98325.13;4977481;28;724;-80
2024/03/09 05:37:31;;;;;;;;;;;;;;;21.85;25.67;98322.66;4978935;28;1997;-80
2024/03/09 05:39:57;;;;;;;;;;;;;;;22.01;25.49;98318.25;5012139;28;1051;-81
2024/03/09 05:42:23;;;;;;;;;;;;;;;21.68;25.98;98332.34;5022612;28;869;-81
2024/03/09 05:44:48;;;;;;;;;;;;;;;21.68;25.88;98329.53;5037525;28;880;-80
2024/03/09 05:47:15;;;;;;;;;;;;;;;21.95;25.22;98329.31;5039631;28;774;-81
2024/03/09 05:49:40;;;;;;;;;;;;;;;21.57;25.76;98332.59;5038300;28;755;-81
2024/03/09 05:52:08;;;;;;;;;;;;;;;21.71;25.83;98325.81;5038252;28;783;-81
2024/03/09 05:54:35;;;;;;;;;;;;;;;21.73;25.73;98345.19;5038977;28;723;-81
2024/03/09 05:57:00;;;;;;;;;;;;;;;21.69;25.79;98336.78;5039978;28;1969;-81
2024/03/09 05:59:26;;;;;;;;;;;;;;;21.80;25.70;98334.50;5038569;28;742;-80
2024/03/09 06:01:52;;;;;;;;;;;;;;;21.69;25.68;98333.16;5039657;28;882;-81
2024/03/09 06:04:17;;;;;;;;;;;;;;;21.61;25.75;98341.00;5038384;28;795;-79
2024/03/09 06:06:43;;;;;;;;;;;;;;;21.67;25.75;98339.25;5001327;28;1226;-80
2024/03/09 06:09:09;;;;;;;;;;;;;;;21.67;25.41;98333.59;5018641;28;917;-80
2024/03/09 06:11:34;;;;;;;;;;;;;;;21.83;25.49;98332.84;5005538;28;798;-80
2024/03/09 06:14:00;;;;;;;;;;;;;;;21.67;25.92;98339.25;5004314;28;819;-80
2024/03/09 06:16:26;;;;;;;;;;;;;;;21.67;25.79;98342.09;5021865;28;755;-80
2024/03/09 06:18:52;;;;;;;;;;;;;;;21.70;25.80;98340.41;5003732;28;1914;-81
2024/03/09 06:21:18;;;;;;;;;;;;;;;21.90;25.44;98337.53;5021534;28;775;-81
2024/03/09 06:23:46;;;;;;;;;;;;;;;21.75;25.58;98342.72;4987828;28;1088;-79
2024/03/09 06:26:12;;;;;;;;;;;;;;;21.71;25.73;98342.81;5021433;28;1129;-79
2024/03/09 06:28:38;;;;;;;;;;;;;;;21.51;25.96;98330.72;5004208;28;1019;-79
2024/03/09 06:31:04;;;;;;;;;;;;;;;21.70;25.91;98346.06;5005885;28;1012;-79
2024/03/09 06:33:31;;;;;;;;;;;;;;;21.62;25.91;98344.63;5003870;28;967;-79
2024/03/09 06:35:57;;;;;;;;;;;;;;;21.85;25.61;98353.03;5005283;28;907;-79
2024/03/09 06:38:23;;;;;;;;;;;;;;;21.76;25.72;98347.97;4972043;28;1914;-79
2024/03/09 06:40:50;;;;;;;;;;;;;;;21.59;26.00;98354.78;5005289;28;846;-79
2024/03/09 06:43:17;;;;;;;;;;;;;;;21.49;25.64;98350.16;5007196;28;986;-79
2024/03/09 06:45:48;;;;;;;;;;;;;;;21.71;25.26;98354.16;5058783;28;916;-79
2024/03/09 06:48:15;;;;;;;;;;;;;;;21.84;25.52;98355.06;5025063;28;1194;-79
2024/03/09 06:50:46;;;;;;;;;;;;;;;21.79;25.55;98349.09;5025794;28;1123;-79
2024/03/09 06:53:12;;;;;;;;;;;;;;;21.64;25.52;98357.09;5025558;28;918;-79
2024/03/09 06:55:37;;;;;;;;;;;;;;;21.66;25.80;98357.50;5042017;28;1106;-78
2024/03/09 06:58:03;;;;;;;;;;;;;;;21.85;25.55;98359.47;5057636;28;1890;-79
2024/03/09 07:00:29;;;;;;;;;;;;;;;21.69;25.71;98359.44;5042792;28;821;-79
2024/03/09 07:03:00;;;;;;;;;;;;;;;21.63;25.72;98361.19;5040951;28;886;-79
2024/03/09 07:05:30;;;;;;;;;;;;;;;21.60;25.70;98362.03;5041264;28;815;-79
2024/03/09 07:07:56;;;;;;;;;;;;;;;21.70;25.74;98358.19;5057730;28;950;-79
2024/03/09 07:10:22;;;;;;;;;;;;;;;21.79;25.33;98360.44;5004521;28;811;-80
2024/03/09 07:12:48;;;;;;;;;;;;;;;21.79;25.48;98361.22;4987746;28;1112;-80
2024/03/09 07:15:16;;;;;;;;;;;;;;;21.78;25.42;98368.13;5004211;28;906;-80
2024/03/09 07:17:45;;;;;;;;;;;;;;;21.83;25.28;98367.63;4988492;28;1914;-80
2024/03/09 07:20:11;;;;;;;;;;;;;;;21.67;25.75;98364.75;4980294;28;978;-79
2024/03/09 07:22:40;;;;;;;;;;;;;;;21.28;26.08;98362.66;4962068;29;889;-79
2024/03/09 07:25:07;;;;;;;;;;;;;;;21.49;25.71;98358.63;4910689;29;1070;-79
2024/03/09 07:27:33;;;;;;;;;;;;;;;21.96;25.24;98361.28;4942469;29;1266;-79
2024/03/09 07:30:01;;;;;;;;;;;;;;;21.69;25.44;98356.59;4926710;29;1254;-79
2024/03/09 07:32:27;;;;;;;;;;;;;;;21.62;25.75;98362.44;4942821;29;854;-79
2024/03/09 07:34:52;;;;;;;;;;;;;;;21.69;25.84;98362.25;4926355;29;985;-79
2024/03/09 07:37:18;;;;;;;;;;;;;;;21.85;25.54;98359.47;4904661;29;1911;-79
2024/03/09 07:39:43;;;;;;;;;;;;;;;21.74;25.44;98364.59;4904229;29;1114;-79
2024/03/09 07:42:09;;;;;;;;;;;;;;;21.58;25.67;98358.84;4873172;29;970;-79
2024/03/09 07:44:35;;;;;;;;;;;;;;;21.42;25.70;98358.78;4870051;29;872;-79
2024/03/09 07:47:00;;;;;;;;;;;;;;;21.73;25.40;98363.00;4889063;29;1023;-79
2024/03/09 07:49:26;;;;;;;;;;;;;;;21.88;25.42;98362.69;4887957;29;1192;-79
2024/03/09 07:51:51;;;;;;;;;;;;;;;21.83;25.52;98367.63;4918459;29;1195;-79
2024/03/09 07:54:17;;;;;;;;;;;;;;;21.87;25.46;98356.22;4926092;29;1424;-79
2024/03/09 07:56:43;;;;;;;;;;;;;;;21.83;25.28;98372.50;4926252;29;1910;-79
2024/03/09 07:59:10;;;;;;;;;;;;;;;21.49;25.98;98375.63;4944503;29;956;-80
2024/03/09 08:01:38;;;;;;;;;;;;;;;21.40;25.83;98369.75;4947902;28;853;-79
2024/03/09 08:04:04;;;;;;;;;;;;;;;21.35;26.02;98381.56;4979676;28;947;-79
2024/03/09 08:06:30;;;;;;;;;;;;;;;21.82;25.26;98368.88;4965065;28;892;-79
2024/03/09 08:08:55;;;;;;;;;;;;;;;21.89;25.31;98375.63;4993764;28;792;-79
2024/03/09 08:11:22;;;;;;;;;;;;;;;21.79;25.21;98372.56;5003162;28;916;-79
2024/03/09 08:13:48;;;;;;;;;;;;;;;21.81;25.60;98381.44;4986776;28;1183;-79
2024/03/09 08:16:13;;;;;;;;;;;;;;;21.78;25.52;98382.31;5018618;28;1093;-79
2024/03/09 08:18:39;;;;;;;;;;;;;;;21.61;25.31;98375.00;5021839;28;1989;-79
2024/03/09 08:21:05;;;;;;;;;;;;;;;21.72;25.44;98372.72;5006391;28;834;-79
2024/03/09 08:23:31;;;;;;;;;;;;;;;21.94;25.17;98375.09;4989267;28;1088;-79
2024/03/09 08:25:58;;;;;;;;;;;;;;;21.61;25.44;98371.38;4999504;28;1285;-79
2024/03/09 08:28:24;;;;;;;;;;;;;;;21.61;25.78;98375.00;4998639;28;1229;-79
2024/03/09 08:30:50;;;;;;;;;;;;;;;21.83;25.29;98373.28;5015558;28;865;-79
2024/03/09 08:33:16;;;;;;;;;;;;;;;21.72;25.59;98366.28;4998248;28;1094;-79
2024/03/09 08:35:41;;;;;;;;;;;;;;;21.58;25.65;98373.03;4999729;28;893;-79
2024/03/09 08:38:07;;;;;;;;;;;;;;;21.64;25.57;98376.13;4982359;28;1911;-79
2024/03/09 08:40:34;;;;;;;;;;;;;;;21.51;25.52;98373.19;4982683;28;889;-79
2024/03/09 08:43:00;;;;;;;;;;;;;;;21.93;25.27;98377.13;4982588;28;1324;-79
2024/03/09 08:45:26;;;;;;;;;;;;;;;21.73;25.26;98365.81;4983277;28;1075;-79
2024/03/09 08:47:52;;;;;;;;;;;;;;;21.46;25.67;98371.66;4999156;28;1114;-79
2024/03/09 08:50:23;;;;;;;;;;;;;;;21.86;25.33;98360.28;4982746;28;883;-79
2024/03/09 08:52:49;;;;;;;;;;;;;;;21.79;25.10;98366.09;4983548;28;1089;-79
2024/03/09 08:55:14;;;;;;;;;;;;;;;21.60;25.58;98364.88;4950565;28;1201;-79
2024/03/09 08:57:41;;;;;;;;;;;;;;;21.27;26.01;98367.53;4998931;28;1914;-79
2024/03/09 09:00:07;;;;;;;;;;;;;;;21.84;25.48;98369.22;4982101;28;755;-79
2024/03/09 09:02:33;;;;;;;;;;;;;;;21.75;25.28;98371.84;4973116;28;998;-79
2024/03/09 09:04:58;;;;;;;;;;;;;;;21.61;25.60;98366.50;5021789;28;1119;-79
2024/03/09 09:07:24;;;;;;;;;;;;;;;21.62;25.41;98368.09;4989321;28;958;-78
2024/03/09 09:09:50;;;;;;;;;;;;;;;21.76;25.54;98367.78;5037945;28;1008;-79
2024/03/09 09:12:17;;;;;;;;;;;;;;;21.84;25.16;98366.38;5022321;28;1195;-79
2024/03/09 09:14:43;;;;;;;;;;;;;;;21.55;25.78;98362.56;5038554;28;858;-79
2024/03/09 09:17:09;;;;;;;;;;;;;;;21.65;25.68;98355.88;5022601;28;1983;-79
2024/03/09 09:19:37;;;;;;;;;;;;;;;21.66;25.56;98357.50;5021647;28;1218;-79
2024/03/09 09:22:06;;;;;;;;;;;;;;;21.59;25.77;98358.41;4998056;28;1021;-79
2024/03/09 09:24:36;;;;;;;;;;;;;;;21.87;25.11;98356.22;4997536;28;923;-79
2024/03/09 09:27:01;;;;;;;;;;;;;;;21.88;25.41;98357.81;5014941;28;1089;-80
2024/03/09 09:29:28;;;;;;;;;;;;;;;21.94;25.25;98360.94;5013858;28;858;-81
2024/03/09 09:32:04;;;;;;;;;;;;;;;21.62;25.48;98355.97;4998250;28;919;-80
2024/03/09 09:34:30;;;;;;;;;;;;;;;21.77;25.11;98360.88;4998017;28;860;-81
2024/03/09 09:36:56;;;;;;;;;;;;;;;21.59;25.75;98355.59;4982056;28;1875;-81
2024/03/09 09:39:25;;;;;;;;;;;;;;;21.83;25.27;98355.50;4997450;28;1139;-80
2024/03/09 09:41:53;;;;;;;;;;;;;;;21.82;25.53;98349.03;4982369;28;1154;-80
2024/03/09 09:44:20;;;;;;;;;;;;;;;21.68;25.61;98354.22;5013592;28;1279;-80
2024/03/09 09:46:45;;;;;;;;;;;;;;;21.66;25.72;98362.31;4997874;28;1247;-80
2024/03/09 09:49:11;;;;;;;;;;;;;;;21.92;25.13;98360.59;4997377;28;943;-81
2024/03/09 09:51:38;;;;;;;;;;;;;;;21.76;25.45;98350.81;4998729;28;795;-80
2024/03/09 09:54:05;;;;;;;;;;;;;;;21.50;25.74;98355.41;5051955;28;918;-80
2024/03/09 09:56:31;;;;;;;;;;;;;;;21.43;26.03;98354.72;5024709;28;790;-80
2024/03/09 09:58:58;;;;;;;;;;;;;;;21.87;25.45;98358.25;5023585;28;1918;-80
2024/03/09 10:01:23;;;;;;;;;;;;;;;21.70;25.70;98351.72;5024588;28;830;-80
2024/03/09 10:03:49;;;;;;;;;;;;;;;21.78;25.57;98351.16;5040191;28;1138;-81
2024/03/09 10:06:21;;;;;;;;;;;;;;;21.91;25.41;98356.13;5023887;28;850;-81
2024/03/09 10:08:48;;;;;;;;;;;;;;;21.56;25.84;98352.84;5016871;28;1353;-80
2024/03/09 10:11:14;;;;;;;;;;;;;;;21.77;25.24;98357.25;4997892;28;844;-80
2024/03/09 10:13:39;;;;;;;;;;;;;;;21.98;25.21;98353.94;4981242;28;1245;-81
2024/03/09 10:16:05;;;;;;;;;;;;;;;21.71;25.25;98348.47;4981975;28;864;-80
2024/03/09 10:18:31;;;;;;;;;;;;;;;21.91;25.27;98356.13;4996822;28;1918;-81
2024/03/09 10:20:59;;;;;;;;;;;;;;;21.88;25.32;98348.53;4998364;28;952;-80
2024/03/09 10:23:27;;;;;;;;;;;;;;;21.79;25.17;98347.06;4996550;28;915;-81
2024/03/09 10:25:53;;;;;;;;;;;;;;;21.97;25.05;98354.41;4993758;28;1062;-81
2024/03/09 10:28:19;;;;;;;;;;;;;;;21.87;25.12;98339.22;4979727;28;930;-80
2024/03/09 10:30:45;;;;;;;;;;;;;;;21.88;25.01;98340.03;4977820;28;912;-81
2024/03/09 10:33:11;;;;;;;;;;;;;;;21.64;25.48;98347.81;4961708;28;957;-81
2024/03/09 10:35:45;;;;;;;;;;;;;;;21.81;25.17;98333.28;4978122;28;911;-81
2024/03/09 10:38:12;;;;;;;;;;;;;;;21.65;25.61;98326.75;4993813;28;1915;-81
2024/03/09 10:40:38;;;;;;;;;;;;;;;21.79;25.54;98327.25;4994589;28;845;-81
2024/03/09 10:43:03;;;;;;;;;;;;;;;21.63;25.71;98334.91;5025325;28;881;-80
2024/03/09 10:45:33;;;;;;;;;;;;;;;21.66;25.55;98328.34;5000367;28;782;-80
2024/03/09 10:48:00;;;;;;;;;;;;;;;21.81;25.21;98321.13;4984721;28;912;-81
2024/03/09 10:50:27;;;;;;;;;;;;;;;21.73;25.44;98329.00;4977813;28;940;-80
2024/03/09 10:52:57;;;;;;;;;;;;;;;21.62;25.40;98325.63;4961609;28;835;-80
2024/03/09 10:55:24;;;;;;;;;;;;;;;21.81;25.36;98323.97;4964200;28;914;-81
2024/03/09 10:57:51;;;;;;;;;;;;;;;21.50;25.73;98323.44;4933538;28;1969;-80
2024/03/09 11:00:28;;;;;;;;;;;;;;;21.72;25.58;98327.41;4965058;28;973;-80
2024/03/09 11:02:55;;;;;;;;;;;;;;;21.69;25.72;98319.78;4966876;28;933;-80
2024/03/09 11:05:22;;;;;;;;;;;;;;;21.51;25.88;98319.38;4949047;28;1027;-80
2024/03/09 11:07:50;;;;;;;;;;;;;;;21.76;25.19;98315.97;4965956;28;796;-80
2024/03/09 11:10:17;;;;;;;;;;;;;;;21.74;25.12;98313.59;4965251;28;2345;-80
2024/03/09 11:12:43;;;;;;;;;;;;;;;21.71;25.45;98297.50;4949333;28;1127;-80
2024/03/09 11:15:08;;;;;;;;;;;;;;;21.84;25.33;98295.56;4965199;28;1006;-80
2024/03/09 11:17:35;;;;;;;;;;;;;;;21.67;25.58;98296.78;5000081;28;1988;-80
2024/03/09 11:20:00;;;;;;;;;;;;;;;21.65;25.56;98299.22;4968413;28;1231;-80
2024/03/09 11:22:40;;;;;;;;;;;;;;;21.56;25.82;98296.22;4969007;28;1278;-80
2024/03/09 11:25:10;;;;;;;;;;;;;;;21.80;25.30;98294.84;4945246;29;936;-80
2024/03/09 11:27:42;;;;;;;;;;;;;;;21.90;25.24;98290.19;4968990;28;1075;-80
2024/03/09 11:30:08;;;;;;;;;;;;;;;21.95;25.29;98280.34;5003284;28;784;-80
2024/03/09 11:32:36;;;;;;;;;;;;;;;21.43;26.02;98286.78;5003822;28;851;-80
2024/03/09 11:35:20;;;;;;;;;;;;;;;21.90;25.25;98280.88;4986987;28;1039;-80
2024/03/09 11:37:48;;;;;;;;;;;;;;;21.66;25.76;98278.19;5019304;28;1910;-81
2024/03/09 11:40:13;;;;;;;;;;;;;;;21.76;25.52;98277.16;5019375;28;974;-81
2024/03/09 11:42:39;;;;;;;;;;;;;;;21.66;25.55;98278.19;4987076;28;779;-80
2024/03/09 11:45:14;;;;;;;;;;;;;;;21.82;25.51;98286.72;5002050;28;1128;-80
2024/03/09 11:47:40;;;;;;;;;;;;;;;21.90;25.47;98280.88;5003317;28;861;-80
2024/03/09 11:50:05;;;;;;;;;;;;;;;22.05;24.99;98273.63;5002515;28;1286;-80
2024/03/09 11:52:32;;;;;;;;;;;;;;;21.73;25.34;98272.34;5003106;28;887;-81
2024/03/09 11:55:04;;;;;;;;;;;;;;;21.50;25.60;98280.97;5003336;28;928;-80
2024/03/09 11:57:30;;;;;;;;;;;;;;;21.91;25.38;98271.13;5040509;28;1901;-80
2024/03/09 11:59:56;;;;;;;;;;;;;;;22.10;25.13;98278.78;5023642;28;1296;-80
2024/03/09 12:02:23;;;;;;;;;;;;;;;21.82;25.44;98281.06;5040864;28;1237;-80
2024/03/09 12:04:48;;;;;;;;;;;;;;;21.89;25.47;98273.63;5039628;28;772;-80
2024/03/09 12:07:15;;;;;;;;;;;;;;;21.84;25.52;98272.91;5039516;28;839;-80
2024/03/09 12:09:44;;;;;;;;;;;;;;;21.72;25.32;98267.94;5040093;28;823;-80
2024/03/09 12:12:11;;;;;;;;;;;;;;;21.58;25.65;98271.09;5040846;28;919;-80
2024/03/09 12:14:37;;;;;;;;;;;;;;;21.44;25.79;98274.22;5023702;28;1157;-80
2024/03/09 12:17:03;;;;;;;;;;;;;;;22.17;25.03;98272.94;5024078;28;1971;-80
2024/03/09 12:19:28;;;;;;;;;;;;;;;21.98;25.11;98276.66;5039714;28;767;-80
2024/03/09 12:21:55;;;;;;;;;;;;;;;21.89;25.18;98282.13;5040543;28;756;-80
2024/03/09 12:24:21;;;;;;;;;;;;;;;21.84;25.09;98278.56;5039155;28;833;-80
2024/03/09 12:26:47;;;;;;;;;;;;;;;21.83;25.50;98271.31;5039938;28;1029;-80
2024/03/09 12:29:12;;;;;;;;;;;;;;;21.70;25.38;98273.22;5039708;28;880;-80
2024/03/09 12:31:41;;;;;;;;;;;;;;;21.78;25.13;98274.66;5023596;28;1179;-80
2024/03/09 12:34:08;;;;;;;;;;;;;;;21.92;25.12;98284.09;5039535;28;1069;-80
2024/03/09 12:36:33;;;;;;;;;;;;;;;21.89;25.29;98273.63;5022831;28;754;-81
2024/03/09 12:39:16;;;;;;;;;;;;;;;21.95;25.28;98283.19;5038762;28;1914;-80
2024/03/09 12:41:41;;;;;;;;;;;;;;;21.81;25.51;98284.31;5023060;28;1188;-80
2024/03/09 12:44:10;;;;;;;;;;;;;;;21.88;25.07;98283.38;5039147;28;875;-80
2024/03/09 12:46:36;;;;;;;;;;;;;;;21.96;25.13;98279.13;5039496;28;951;-80
2024/03/09 12:49:08;;;;;;;;;;;;;;;21.65;25.61;98276.56;5022720;28;958;-80
2024/03/09 12:51:34;;;;;;;;;;;;;;;21.39;25.96;98271.91;5040007;28;1598;-80
2024/03/09 12:54:06;;;;;;;;;;;;;;;21.62;25.36;98262.53;5022853;28;1232;-80
2024/03/09 12:56:32;;;;;;;;;;;;;;;21.82;25.48;98274.59;5039682;28;789;-80
2024/03/09 12:59:00;;;;;;;;;;;;;;;21.88;25.48;98270.00;5055410;28;1914;-80
2024/03/09 13:01:31;;;;;;;;;;;;;;;21.95;25.21;98272.66;5001941;28;949;-81